sensor_id;sensor_type;location;lat;lon;timestamp;P1;durP1;ratioP1;P2;durP2;ratioP2
28834;SDS011;15969;51.536;11.884;2023-02-27T00:02:10;4.43;;;2.07;;
28834;SDS011;15969;51.536;11.884;2023-02-27T00:04:36;1.83;;;1.50;;
28834;SDS011;15969;51.536;11.884;2023-02-27T00:07:02;3.03;;;1.80;;
28834;SDS011;15969;51.536;11.884;2023-02-27T00:09:27;2.80;;;1.50;;
28834;SDS011;15969;51.536;11.884;2023-02-27T00:11:53;3.10;;;1.70;;
28834;SDS011;15969;51.536;11.884;2023-02-27T00:14:19;3.33;;;1.77;;
28834;SDS011;15969;51.536;11.884;2023-02-27T00:16:44;1.80;;;1.50;;
28834;SDS011;15969;51.536;11.884;2023-02-27T00:19:10;1.87;;;1.43;;
28834;SDS011;15969;51.536;11.884;2023-02-27T00:21:37;1.70;;;1.30;;
28834;SDS011;15969;51.536;11.884;2023-02-27T00:24:03;2.50;;;1.50;;
28834;SDS011;15969;51.536;11.884;2023-02-27T00:26:29;2.63;;;1.33;;
28834;SDS011;15969;51.536;11.884;2023-02-27T00:28:55;2.33;;;1.30;;
28834;SDS011;15969;51.536;11.884;2023-02-27T00:31:20;3.00;;;1.80;;
28834;SDS011;15969;51.536;11.884;2023-02-27T00:33:46;2.43;;;1.73;;
28834;SDS011;15969;51.536;11.884;2023-02-27T00:36:12;3.77;;;1.53;;
28834;SDS011;15969;51.536;11.884;2023-02-27T00:38:38;2.67;;;1.80;;
28834;SDS011;15969;51.536;11.884;2023-02-27T00:41:03;4.27;;;2.13;;
28834;SDS011;15969;51.536;11.884;2023-02-27T00:43:29;2.90;;;1.63;;
28834;SDS011;15969;51.536;11.884;2023-02-27T00:45:55;3.50;;;1.73;;
28834;SDS011;15969;51.536;11.884;2023-02-27T00:48:20;4.77;;;1.70;;
28834;SDS011;15969;51.536;11.884;2023-02-27T00:50:46;3.03;;;1.63;;
28834;SDS011;15969;51.536;11.884;2023-02-27T00:53:14;3.00;;;2.10;;
28834;SDS011;15969;51.536;11.884;2023-02-27T00:55:40;3.20;;;1.30;;
28834;SDS011;15969;51.536;11.884;2023-02-27T00:58:06;1.93;;;1.40;;
28834;SDS011;15969;51.536;11.884;2023-02-27T01:00:32;2.57;;;1.70;;
28834;SDS011;15969;51.536;11.884;2023-02-27T01:02:57;2.67;;;1.60;;
28834;SDS011;15969;51.536;11.884;2023-02-27T01:05:23;4.30;;;1.73;;
28834;SDS011;15969;51.536;11.884;2023-02-27T01:07:49;2.87;;;1.70;;
28834;SDS011;15969;51.536;11.884;2023-02-27T01:10:15;2.03;;;1.30;;
28834;SDS011;15969;51.536;11.884;2023-02-27T01:12:41;2.37;;;1.43;;
28834;SDS011;15969;51.536;11.884;2023-02-27T01:15:07;1.90;;;1.30;;
28834;SDS011;15969;51.536;11.884;2023-02-27T01:17:34;1.83;;;1.10;;
28834;SDS011;15969;51.536;11.884;2023-02-27T01:20:00;1.50;;;1.40;;
28834;SDS011;15969;51.536;11.884;2023-02-27T01:22:26;2.80;;;1.80;;
28834;SDS011;15969;51.536;11.884;2023-02-27T01:24:52;2.57;;;1.40;;
28834;SDS011;15969;51.536;11.884;2023-02-27T01:27:17;2.73;;;1.60;;
28834;SDS011;15969;51.536;11.884;2023-02-27T01:29:43;1.90;;;1.23;;
28834;SDS011;15969;51.536;11.884;2023-02-27T01:32:09;1.83;;;1.40;;
28834;SDS011;15969;51.536;11.884;2023-02-27T01:34:34;3.00;;;1.43;;
28834;SDS011;15969;51.536;11.884;2023-02-27T01:37:00;2.23;;;1.57;;
28834;SDS011;15969;51.536;11.884;2023-02-27T01:39:26;2.23;;;1.27;;
28834;SDS011;15969;51.536;11.884;2023-02-27T01:41:53;2.90;;;1.30;;
28834;SDS011;15969;51.536;11.884;2023-02-27T01:44:18;2.30;;;1.67;;
28834;SDS011;15969;51.536;11.884;2023-02-27T01:46:44;2.60;;;1.70;;
28834;SDS011;15969;51.536;11.884;2023-02-27T01:49:17;2.03;;;1.77;;
28834;SDS011;15969;51.536;11.884;2023-02-27T01:51:53;2.10;;;1.70;;
28834;SDS011;15969;51.536;11.884;2023-02-27T01:54:29;3.40;;;1.63;;
28834;SDS011;15969;51.536;11.884;2023-02-27T01:57:00;3.60;;;1.60;;
28834;SDS011;15969;51.536;11.884;2023-02-27T01:59:27;4.13;;;1.90;;
28834;SDS011;15969;51.536;11.884;2023-02-27T02:01:53;2.30;;;1.57;;
28834;SDS011;15969;51.536;11.884;2023-02-27T02:04:25;3.77;;;1.50;;
28834;SDS011;15969;51.536;11.884;2023-02-27T02:06:55;4.00;;;1.73;;
28834;SDS011;15969;51.536;11.884;2023-02-27T02:09:25;4.17;;;1.80;;
28834;SDS011;15969;51.536;11.884;2023-02-27T02:11:53;3.20;;;1.73;;
28834;SDS011;15969;51.536;11.884;2023-02-27T02:14:21;3.87;;;1.93;;
28834;SDS011;15969;51.536;11.884;2023-02-27T02:16:51;3.33;;;1.70;;
28834;SDS011;15969;51.536;11.884;2023-02-27T02:26:26;2.23;;;1.53;;
28834;SDS011;15969;51.536;11.884;2023-02-27T02:31:55;3.90;;;1.93;;
28834;SDS011;15969;51.536;11.884;2023-02-27T02:34:54;3.37;;;1.63;;
28834;SDS011;15969;51.536;11.884;2023-02-27T02:40:56;1.77;;;1.50;;
28834;SDS011;15969;51.536;11.884;2023-02-27T02:44:01;2.90;;;1.60;;
28834;SDS011;15969;51.536;11.884;2023-02-27T02:46:42;2.83;;;1.97;;
28834;SDS011;15969;51.536;11.884;2023-02-27T02:49:45;2.73;;;1.60;;
28834;SDS011;15969;51.536;11.884;2023-02-27T02:52:39;2.47;;;1.50;;
28834;SDS011;15969;51.536;11.884;2023-02-27T02:55:20;2.00;;;1.40;;
28834;SDS011;15969;51.536;11.884;2023-02-27T02:58:05;2.40;;;1.70;;
28834;SDS011;15969;51.536;11.884;2023-02-27T03:00:46;2.23;;;1.60;;
28834;SDS011;15969;51.536;11.884;2023-02-27T03:03:38;3.93;;;1.80;;
28834;SDS011;15969;51.536;11.884;2023-02-27T03:06:10;2.43;;;1.90;;
28834;SDS011;15969;51.536;11.884;2023-02-27T03:08:47;2.00;;;1.53;;
28834;SDS011;15969;51.536;11.884;2023-02-27T03:11:20;2.67;;;1.53;;
28834;SDS011;15969;51.536;11.884;2023-02-27T03:13:53;4.57;;;1.60;;
28834;SDS011;15969;51.536;11.884;2023-02-27T03:16:31;2.67;;;1.50;;
28834;SDS011;15969;51.536;11.884;2023-02-27T03:19:07;3.03;;;1.60;;
28834;SDS011;15969;51.536;11.884;2023-02-27T03:22:02;2.87;;;1.63;;
28834;SDS011;15969;51.536;11.884;2023-02-27T03:24:33;3.17;;;1.50;;
28834;SDS011;15969;51.536;11.884;2023-02-27T03:27:04;2.80;;;1.80;;
28834;SDS011;15969;51.536;11.884;2023-02-27T03:29:36;2.40;;;2.07;;
28834;SDS011;15969;51.536;11.884;2023-02-27T03:32:20;2.93;;;1.70;;
28834;SDS011;15969;51.536;11.884;2023-02-27T03:34:54;2.47;;;1.87;;
28834;SDS011;15969;51.536;11.884;2023-02-27T03:37:34;5.23;;;1.77;;
28834;SDS011;15969;51.536;11.884;2023-02-27T03:40:21;3.77;;;2.00;;
28834;SDS011;15969;51.536;11.884;2023-02-27T03:43:02;2.53;;;1.90;;
28834;SDS011;15969;51.536;11.884;2023-02-27T03:45:54;4.43;;;2.13;;
28834;SDS011;15969;51.536;11.884;2023-02-27T03:48:33;3.20;;;2.10;;
28834;SDS011;15969;51.536;11.884;2023-02-27T03:50:59;4.77;;;2.07;;
28834;SDS011;15969;51.536;11.884;2023-02-27T03:53:36;4.60;;;2.10;;
28834;SDS011;15969;51.536;11.884;2023-02-27T03:56:09;2.27;;;1.87;;
28834;SDS011;15969;51.536;11.884;2023-02-27T03:58:37;5.03;;;2.00;;
28834;SDS011;15969;51.536;11.884;2023-02-27T04:01:03;3.13;;;1.80;;
28834;SDS011;15969;51.536;11.884;2023-02-27T04:03:29;3.23;;;1.87;;
28834;SDS011;15969;51.536;11.884;2023-02-27T04:06:01;2.20;;;1.73;;
28834;SDS011;15969;51.536;11.884;2023-02-27T04:08:53;3.40;;;2.03;;
28834;SDS011;15969;51.536;11.884;2023-02-27T04:11:48;2.50;;;1.80;;
28834;SDS011;15969;51.536;11.884;2023-02-27T04:14:32;4.40;;;2.00;;
28834;SDS011;15969;51.536;11.884;2023-02-27T04:17:26;5.27;;;1.90;;
28834;SDS011;15969;51.536;11.884;2023-02-27T04:19:58;3.03;;;1.80;;
28834;SDS011;15969;51.536;11.884;2023-02-27T04:23:02;2.13;;;1.70;;
28834;SDS011;15969;51.536;11.884;2023-02-27T04:31:00;3.03;;;2.00;;
28834;SDS011;15969;51.536;11.884;2023-02-27T04:33:49;3.00;;;1.87;;
28834;SDS011;15969;51.536;11.884;2023-02-27T04:37:09;2.43;;;1.77;;
28834;SDS011;15969;51.536;11.884;2023-02-27T04:39:43;4.37;;;2.30;;
28834;SDS011;15969;51.536;11.884;2023-02-27T04:42:16;2.77;;;2.13;;
28834;SDS011;15969;51.536;11.884;2023-02-27T04:44:48;4.47;;;2.03;;
28834;SDS011;15969;51.536;11.884;2023-02-27T04:47:15;3.97;;;2.17;;
28834;SDS011;15969;51.536;11.884;2023-02-27T04:49:44;4.70;;;2.30;;
28834;SDS011;15969;51.536;11.884;2023-02-27T04:52:22;4.33;;;2.13;;
28834;SDS011;15969;51.536;11.884;2023-02-27T04:55:14;4.67;;;2.20;;
28834;SDS011;15969;51.536;11.884;2023-02-27T04:57:56;3.23;;;2.00;;
28834;SDS011;15969;51.536;11.884;2023-02-27T05:00:27;4.63;;;2.70;;
28834;SDS011;15969;51.536;11.884;2023-02-27T05:03:00;3.07;;;2.20;;
28834;SDS011;15969;51.536;11.884;2023-02-27T05:05:36;4.93;;;2.33;;
28834;SDS011;15969;51.536;11.884;2023-02-27T05:08:07;4.70;;;2.20;;
28834;SDS011;15969;51.536;11.884;2023-02-27T05:10:44;3.10;;;2.43;;
28834;SDS011;15969;51.536;11.884;2023-02-27T05:13:18;2.97;;;2.43;;
28834;SDS011;15969;51.536;11.884;2023-02-27T05:15:51;4.63;;;2.60;;
28834;SDS011;15969;51.536;11.884;2023-02-27T05:18:25;5.10;;;2.50;;
28834;SDS011;15969;51.536;11.884;2023-02-27T05:21:07;4.00;;;2.77;;
28834;SDS011;15969;51.536;11.884;2023-02-27T05:24:10;4.60;;;2.43;;
28834;SDS011;15969;51.536;11.884;2023-02-27T05:26:51;4.10;;;2.33;;
28834;SDS011;15969;51.536;11.884;2023-02-27T05:29:49;4.83;;;2.73;;
28834;SDS011;15969;51.536;11.884;2023-02-27T05:32:33;6.10;;;3.00;;
28834;SDS011;15969;51.536;11.884;2023-02-27T05:35:10;4.53;;;2.97;;
28834;SDS011;15969;51.536;11.884;2023-02-27T05:38:16;3.03;;;2.47;;
28834;SDS011;15969;51.536;11.884;2023-02-27T05:40:53;6.73;;;2.67;;
28834;SDS011;15969;51.536;11.884;2023-02-27T05:43:36;6.00;;;3.00;;
28834;SDS011;15969;51.536;11.884;2023-02-27T05:46:12;4.87;;;2.50;;
28834;SDS011;15969;51.536;11.884;2023-02-27T05:48:56;6.30;;;2.90;;
28834;SDS011;15969;51.536;11.884;2023-02-27T05:51:48;3.33;;;2.67;;
28834;SDS011;15969;51.536;11.884;2023-02-27T05:54:20;3.87;;;2.80;;
28834;SDS011;15969;51.536;11.884;2023-02-27T05:57:01;3.23;;;2.17;;
28834;SDS011;15969;51.536;11.884;2023-02-27T05:59:34;5.70;;;2.57;;
28834;SDS011;15969;51.536;11.884;2023-02-27T06:02:10;3.63;;;2.30;;
28834;SDS011;15969;51.536;11.884;2023-02-27T06:04:36;3.83;;;2.23;;
28834;SDS011;15969;51.536;11.884;2023-02-27T06:07:02;6.17;;;2.53;;
28834;SDS011;15969;51.536;11.884;2023-02-27T06:09:29;6.53;;;2.77;;
28834;SDS011;15969;51.536;11.884;2023-02-27T06:11:56;4.73;;;2.43;;
28834;SDS011;15969;51.536;11.884;2023-02-27T06:14:24;4.97;;;2.93;;
28834;SDS011;15969;51.536;11.884;2023-02-27T06:16:49;3.50;;;2.33;;
28834;SDS011;15969;51.536;11.884;2023-02-27T06:19:15;3.73;;;2.53;;
28834;SDS011;15969;51.536;11.884;2023-02-27T06:21:41;4.67;;;2.43;;
28834;SDS011;15969;51.536;11.884;2023-02-27T06:24:07;4.27;;;2.50;;
28834;SDS011;15969;51.536;11.884;2023-02-27T06:26:32;6.10;;;2.73;;
28834;SDS011;15969;51.536;11.884;2023-02-27T06:28:58;3.43;;;2.50;;
28834;SDS011;15969;51.536;11.884;2023-02-27T06:31:24;3.77;;;2.33;;
28834;SDS011;15969;51.536;11.884;2023-02-27T06:33:50;3.67;;;2.30;;
28834;SDS011;15969;51.536;11.884;2023-02-27T06:36:16;4.03;;;3.07;;
28834;SDS011;15969;51.536;11.884;2023-02-27T06:38:42;4.03;;;2.53;;
28834;SDS011;15969;51.536;11.884;2023-02-27T06:41:07;2.50;;;2.20;;
28834;SDS011;15969;51.536;11.884;2023-02-27T06:43:33;3.03;;;1.97;;
28834;SDS011;15969;51.536;11.884;2023-02-27T06:46:00;4.97;;;2.20;;
28834;SDS011;15969;51.536;11.884;2023-02-27T06:48:27;2.73;;;2.27;;
28834;SDS011;15969;51.536;11.884;2023-02-27T06:50:53;3.20;;;2.27;;
28834;SDS011;15969;51.536;11.884;2023-02-27T06:53:20;4.53;;;2.30;;
28834;SDS011;15969;51.536;11.884;2023-02-27T06:55:47;5.73;;;3.87;;
28834;SDS011;15969;51.536;11.884;2023-02-27T06:58:13;3.57;;;2.20;;
28834;SDS011;15969;51.536;11.884;2023-02-27T07:00:40;4.93;;;2.20;;
28834;SDS011;15969;51.536;11.884;2023-02-27T07:03:07;3.27;;;2.00;;
28834;SDS011;15969;51.536;11.884;2023-02-27T07:05:33;4.23;;;2.40;;
28834;SDS011;15969;51.536;11.884;2023-02-27T07:07:59;3.87;;;2.30;;
28834;SDS011;15969;51.536;11.884;2023-02-27T07:10:25;4.43;;;2.47;;
28834;SDS011;15969;51.536;11.884;2023-02-27T07:12:50;3.70;;;1.93;;
28834;SDS011;15969;51.536;11.884;2023-02-27T07:15:16;2.47;;;2.10;;
28834;SDS011;15969;51.536;11.884;2023-02-27T07:17:42;3.00;;;1.70;;
28834;SDS011;15969;51.536;11.884;2023-02-27T07:20:08;3.93;;;2.20;;
28834;SDS011;15969;51.536;11.884;2023-02-27T07:22:35;4.27;;;2.43;;
28834;SDS011;15969;51.536;11.884;2023-02-27T07:25:02;4.10;;;2.63;;
28834;SDS011;15969;51.536;11.884;2023-02-27T07:27:29;2.97;;;2.30;;
28834;SDS011;15969;51.536;11.884;2023-02-27T07:29:55;5.90;;;2.70;;
28834;SDS011;15969;51.536;11.884;2023-02-27T07:32:20;3.63;;;2.40;;
28834;SDS011;15969;51.536;11.884;2023-02-27T07:34:46;4.67;;;3.03;;
28834;SDS011;15969;51.536;11.884;2023-02-27T07:37:12;3.60;;;2.50;;
28834;SDS011;15969;51.536;11.884;2023-02-27T07:39:37;5.53;;;2.57;;
28834;SDS011;15969;51.536;11.884;2023-02-27T07:42:03;4.17;;;2.50;;
28834;SDS011;15969;51.536;11.884;2023-02-27T07:44:29;3.53;;;2.73;;
28834;SDS011;15969;51.536;11.884;2023-02-27T07:46:56;3.53;;;2.50;;
28834;SDS011;15969;51.536;11.884;2023-02-27T07:49:22;4.37;;;2.17;;
28834;SDS011;15969;51.536;11.884;2023-02-27T07:51:48;4.53;;;2.50;;
28834;SDS011;15969;51.536;11.884;2023-02-27T07:54:13;5.43;;;2.37;;
28834;SDS011;15969;51.536;11.884;2023-02-27T07:56:39;5.13;;;2.33;;
28834;SDS011;15969;51.536;11.884;2023-02-27T07:59:05;4.00;;;2.37;;
28834;SDS011;15969;51.536;11.884;2023-02-27T08:01:30;5.10;;;2.70;;
28834;SDS011;15969;51.536;11.884;2023-02-27T08:03:56;7.47;;;2.80;;
28834;SDS011;15969;51.536;11.884;2023-02-27T08:06:22;7.60;;;2.63;;
28834;SDS011;15969;51.536;11.884;2023-02-27T08:08:48;8.77;;;2.50;;
28834;SDS011;15969;51.536;11.884;2023-02-27T08:11:14;4.70;;;2.80;;
28834;SDS011;15969;51.536;11.884;2023-02-27T08:13:40;6.00;;;3.00;;
28834;SDS011;15969;51.536;11.884;2023-02-27T08:16:06;6.63;;;3.17;;
28834;SDS011;15969;51.536;11.884;2023-02-27T08:18:32;4.93;;;3.00;;
28834;SDS011;15969;51.536;11.884;2023-02-27T08:20:57;3.40;;;2.37;;
28834;SDS011;15969;51.536;11.884;2023-02-27T08:23:23;4.33;;;2.73;;
28834;SDS011;15969;51.536;11.884;2023-02-27T08:25:49;4.90;;;3.03;;
28834;SDS011;15969;51.536;11.884;2023-02-27T08:28:15;3.90;;;2.67;;
28834;SDS011;15969;51.536;11.884;2023-02-27T08:30:42;4.83;;;2.60;;
28834;SDS011;15969;51.536;11.884;2023-02-27T08:33:08;6.10;;;2.90;;
28834;SDS011;15969;51.536;11.884;2023-02-27T08:35:34;7.30;;;2.97;;
28834;SDS011;15969;51.536;11.884;2023-02-27T08:38:00;6.17;;;2.80;;
28834;SDS011;15969;51.536;11.884;2023-02-27T08:40:26;4.20;;;2.70;;
28834;SDS011;15969;51.536;11.884;2023-02-27T08:42:51;4.60;;;2.80;;
28834;SDS011;15969;51.536;11.884;2023-02-27T08:45:17;6.83;;;2.53;;
28834;SDS011;15969;51.536;11.884;2023-02-27T08:47:43;5.23;;;2.60;;
28834;SDS011;15969;51.536;11.884;2023-02-27T08:50:09;7.53;;;2.20;;
28834;SDS011;15969;51.536;11.884;2023-02-27T08:52:38;6.97;;;3.30;;
28834;SDS011;15969;51.536;11.884;2023-02-27T08:55:04;3.27;;;2.33;;
28834;SDS011;15969;51.536;11.884;2023-02-27T08:57:30;4.07;;;2.93;;
28834;SDS011;15969;51.536;11.884;2023-02-27T08:59:56;5.97;;;2.60;;
28834;SDS011;15969;51.536;11.884;2023-02-27T09:02:22;8.33;;;2.70;;
28834;SDS011;15969;51.536;11.884;2023-02-27T09:04:50;4.43;;;3.07;;
28834;SDS011;15969;51.536;11.884;2023-02-27T09:07:16;5.23;;;2.33;;
28834;SDS011;15969;51.536;11.884;2023-02-27T09:09:42;5.20;;;3.07;;
28834;SDS011;15969;51.536;11.884;2023-02-27T09:12:09;5.30;;;2.67;;
28834;SDS011;15969;51.536;11.884;2023-02-27T09:14:34;6.40;;;2.63;;
28834;SDS011;15969;51.536;11.884;2023-02-27T09:17:00;5.90;;;3.10;;
28834;SDS011;15969;51.536;11.884;2023-02-27T09:19:26;5.20;;;2.63;;
28834;SDS011;15969;51.536;11.884;2023-02-27T09:21:51;5.73;;;3.07;;
28834;SDS011;15969;51.536;11.884;2023-02-27T09:24:17;6.97;;;3.00;;
28834;SDS011;15969;51.536;11.884;2023-02-27T09:26:43;9.73;;;3.13;;
28834;SDS011;15969;51.536;11.884;2023-02-27T09:29:08;5.87;;;2.77;;
28834;SDS011;15969;51.536;11.884;2023-02-27T09:31:34;7.37;;;3.37;;
28834;SDS011;15969;51.536;11.884;2023-02-27T09:34:00;9.53;;;2.63;;
28834;SDS011;15969;51.536;11.884;2023-02-27T09:36:26;5.80;;;2.67;;
28834;SDS011;15969;51.536;11.884;2023-02-27T09:38:52;7.53;;;3.07;;
28834;SDS011;15969;51.536;11.884;2023-02-27T09:41:39;6.37;;;2.63;;
28834;SDS011;15969;51.536;11.884;2023-02-27T09:44:28;8.03;;;2.70;;
28834;SDS011;15969;51.536;11.884;2023-02-27T09:46:57;4.23;;;2.30;;
28834;SDS011;15969;51.536;11.884;2023-02-27T09:49:23;6.67;;;2.47;;
28834;SDS011;15969;51.536;11.884;2023-02-27T09:51:56;5.13;;;3.00;;
28834;SDS011;15969;51.536;11.884;2023-02-27T09:54:22;8.73;;;3.13;;
28834;SDS011;15969;51.536;11.884;2023-02-27T09:57:04;4.30;;;2.20;;
28834;SDS011;15969;51.536;11.884;2023-02-27T09:59:43;6.30;;;2.40;;
28834;SDS011;15969;51.536;11.884;2023-02-27T10:02:27;7.60;;;2.40;;
28834;SDS011;15969;51.536;11.884;2023-02-27T10:05:22;6.33;;;2.80;;
28834;SDS011;15969;51.536;11.884;2023-02-27T10:10:40;6.93;;;2.47;;
28834;SDS011;15969;51.536;11.884;2023-02-27T10:13:54;6.40;;;3.00;;
28834;SDS011;15969;51.536;11.884;2023-02-27T10:17:01;5.03;;;3.17;;
28834;SDS011;15969;51.536;11.884;2023-02-27T10:19:31;5.43;;;3.37;;
28834;SDS011;15969;51.536;11.884;2023-02-27T10:22:01;7.37;;;3.60;;
28834;SDS011;15969;51.536;11.884;2023-02-27T10:24:33;5.37;;;3.53;;
28834;SDS011;15969;51.536;11.884;2023-02-27T10:27:05;7.13;;;3.67;;
28834;SDS011;15969;51.536;11.884;2023-02-27T10:29:40;8.13;;;3.80;;
28834;SDS011;15969;51.536;11.884;2023-02-27T10:32:10;11.03;;;4.20;;
28834;SDS011;15969;51.536;11.884;2023-02-27T10:34:43;5.73;;;3.60;;
28834;SDS011;15969;51.536;11.884;2023-02-27T10:37:14;7.93;;;4.20;;
28834;SDS011;15969;51.536;11.884;2023-02-27T10:39:52;6.37;;;3.30;;
28834;SDS011;15969;51.536;11.884;2023-02-27T10:42:23;6.73;;;3.70;;
28834;SDS011;15969;51.536;11.884;2023-02-27T10:44:52;9.77;;;3.67;;
28834;SDS011;15969;51.536;11.884;2023-02-27T10:47:20;5.07;;;3.70;;
28834;SDS011;15969;51.536;11.884;2023-02-27T10:49:48;5.43;;;3.10;;
28834;SDS011;15969;51.536;11.884;2023-02-27T10:52:15;6.10;;;3.80;;
28834;SDS011;15969;51.536;11.884;2023-02-27T10:54:42;6.43;;;3.43;;
28834;SDS011;15969;51.536;11.884;2023-02-27T10:59:56;5.33;;;2.90;;
28834;SDS011;15969;51.536;11.884;2023-02-27T11:02:30;4.83;;;3.00;;
28834;SDS011;15969;51.536;11.884;2023-02-27T11:05:02;3.90;;;2.93;;
28834;SDS011;15969;51.536;11.884;2023-02-27T11:07:35;4.77;;;2.47;;
28834;SDS011;15969;51.536;11.884;2023-02-27T11:12:37;5.97;;;2.80;;
28834;SDS011;15969;51.536;11.884;2023-02-27T11:17:40;7.10;;;2.43;;
28834;SDS011;15969;51.536;11.884;2023-02-27T11:20:30;4.20;;;2.40;;
28834;SDS011;15969;51.536;11.884;2023-02-27T11:23:10;7.40;;;2.70;;
28834;SDS011;15969;51.536;11.884;2023-02-27T11:25:40;3.50;;;2.00;;
28834;SDS011;15969;51.536;11.884;2023-02-27T11:28:39;5.57;;;2.10;;
28834;SDS011;15969;51.536;11.884;2023-02-27T11:31:14;3.30;;;2.17;;
28834;SDS011;15969;51.536;11.884;2023-02-27T11:33:54;8.57;;;2.40;;
28834;SDS011;15969;51.536;11.884;2023-02-27T11:36:22;3.97;;;2.03;;
28834;SDS011;15969;51.536;11.884;2023-02-27T11:39:06;3.83;;;2.03;;
28834;SDS011;15969;51.536;11.884;2023-02-27T11:41:46;4.77;;;1.70;;
28834;SDS011;15969;51.536;11.884;2023-02-27T11:44:14;4.07;;;2.00;;
28834;SDS011;15969;51.536;11.884;2023-02-27T11:46:44;3.70;;;1.87;;
28834;SDS011;15969;51.536;11.884;2023-02-27T11:49:28;3.13;;;1.63;;
28834;SDS011;15969;51.536;11.884;2023-02-27T11:52:03;3.63;;;1.67;;
28834;SDS011;15969;51.536;11.884;2023-02-27T11:54:51;4.03;;;1.53;;
28834;SDS011;15969;51.536;11.884;2023-02-27T11:57:38;4.33;;;2.20;;
28834;SDS011;15969;51.536;11.884;2023-02-27T12:00:12;2.77;;;1.40;;
28834;SDS011;15969;51.536;11.884;2023-02-27T12:03:05;3.77;;;1.67;;
28834;SDS011;15969;51.536;11.884;2023-02-27T12:06:13;3.00;;;1.40;;
28834;SDS011;15969;51.536;11.884;2023-02-27T12:08:48;1.73;;;1.07;;
28834;SDS011;15969;51.536;11.884;2023-02-27T12:13:57;2.17;;;1.30;;
28834;SDS011;15969;51.536;11.884;2023-02-27T12:16:39;4.70;;;1.70;;
28834;SDS011;15969;51.536;11.884;2023-02-27T12:19:59;3.20;;;1.87;;
28834;SDS011;15969;51.536;11.884;2023-02-27T12:22:36;4.60;;;1.77;;
28834;SDS011;15969;51.536;11.884;2023-02-27T12:28:07;3.43;;;1.50;;
28834;SDS011;15969;51.536;11.884;2023-02-27T12:36:16;2.13;;;1.00;;
28834;SDS011;15969;51.536;11.884;2023-02-27T12:38:42;3.43;;;1.40;;
28834;SDS011;15969;51.536;11.884;2023-02-27T12:47:07;3.63;;;1.40;;
28834;SDS011;15969;51.536;11.884;2023-02-27T12:50:02;3.27;;;1.67;;
28834;SDS011;15969;51.536;11.884;2023-02-27T12:55:53;1.93;;;1.40;;
28834;SDS011;15969;51.536;11.884;2023-02-27T12:58:32;5.97;;;1.93;;
28834;SDS011;15969;51.536;11.884;2023-02-27T13:01:30;3.07;;;1.77;;
28834;SDS011;15969;51.536;11.884;2023-02-27T13:07:20;2.77;;;1.67;;
28834;SDS011;15969;51.536;11.884;2023-02-27T13:10:18;4.67;;;1.93;;
28834;SDS011;15969;51.536;11.884;2023-02-27T13:12:53;4.37;;;1.90;;
28834;SDS011;15969;51.536;11.884;2023-02-27T13:15:32;3.97;;;1.40;;
28834;SDS011;15969;51.536;11.884;2023-02-27T13:18:19;3.73;;;1.90;;
28834;SDS011;15969;51.536;11.884;2023-02-27T13:21:10;3.50;;;1.80;;
28834;SDS011;15969;51.536;11.884;2023-02-27T13:29:36;5.70;;;1.70;;
28834;SDS011;15969;51.536;11.884;2023-02-27T13:32:46;5.03;;;1.63;;
28834;SDS011;15969;51.536;11.884;2023-02-27T13:38:49;2.90;;;1.53;;
28834;SDS011;15969;51.536;11.884;2023-02-27T13:43:45;2.57;;;1.80;;
28834;SDS011;15969;51.536;11.884;2023-02-27T13:46:25;2.23;;;1.30;;
28834;SDS011;15969;51.536;11.884;2023-02-27T13:48:53;6.33;;;2.07;;
28834;SDS011;15969;51.536;11.884;2023-02-27T13:51:46;4.33;;;1.70;;
28834;SDS011;15969;51.536;11.884;2023-02-27T13:56:42;3.20;;;1.90;;
28834;SDS011;15969;51.536;11.884;2023-02-27T13:59:12;2.40;;;1.43;;
28834;SDS011;15969;51.536;11.884;2023-02-27T14:01:56;3.20;;;1.33;;
28834;SDS011;15969;51.536;11.884;2023-02-27T14:04:31;2.17;;;1.10;;
28834;SDS011;15969;51.536;11.884;2023-02-27T14:07:01;1.90;;;1.53;;
28834;SDS011;15969;51.536;11.884;2023-02-27T14:09:36;3.97;;;1.77;;
28834;SDS011;15969;51.536;11.884;2023-02-27T14:12:05;3.90;;;1.53;;
28834;SDS011;15969;51.536;11.884;2023-02-27T14:14:51;2.80;;;1.80;;
28834;SDS011;15969;51.536;11.884;2023-02-27T14:20:09;4.27;;;1.80;;
28834;SDS011;15969;51.536;11.884;2023-02-27T14:26:09;3.80;;;1.70;;
28834;SDS011;15969;51.536;11.884;2023-02-27T14:28:46;3.33;;;1.20;;
28834;SDS011;15969;51.536;11.884;2023-02-27T14:31:21;2.70;;;1.53;;
28834;SDS011;15969;51.536;11.884;2023-02-27T14:33:59;1.97;;;1.40;;
28834;SDS011;15969;51.536;11.884;2023-02-27T14:39:21;3.87;;;1.43;;
28834;SDS011;15969;51.536;11.884;2023-02-27T14:41:54;1.93;;;1.57;;
28834;SDS011;15969;51.536;11.884;2023-02-27T14:45:18;4.63;;;1.83;;
28834;SDS011;15969;51.536;11.884;2023-02-27T14:47:47;2.50;;;1.30;;
28834;SDS011;15969;51.536;11.884;2023-02-27T14:50:22;4.40;;;1.80;;
28834;SDS011;15969;51.536;11.884;2023-02-27T14:52:58;2.13;;;1.73;;
28834;SDS011;15969;51.536;11.884;2023-02-27T14:55:29;2.70;;;1.70;;
28834;SDS011;15969;51.536;11.884;2023-02-27T15:03:09;4.83;;;2.63;;
28834;SDS011;15969;51.536;11.884;2023-02-27T15:05:42;3.77;;;1.90;;
28834;SDS011;15969;51.536;11.884;2023-02-27T15:08:20;3.60;;;2.00;;
28834;SDS011;15969;51.536;11.884;2023-02-27T15:10:50;3.73;;;2.20;;
28834;SDS011;15969;51.536;11.884;2023-02-27T15:13:22;6.70;;;1.90;;
28834;SDS011;15969;51.536;11.884;2023-02-27T15:18:47;4.77;;;1.80;;
28834;SDS011;15969;51.536;11.884;2023-02-27T15:21:15;4.50;;;1.80;;
28834;SDS011;15969;51.536;11.884;2023-02-27T15:23:46;5.93;;;2.50;;
28834;SDS011;15969;51.536;11.884;2023-02-27T15:26:26;5.90;;;2.23;;
28834;SDS011;15969;51.536;11.884;2023-02-27T15:28:54;3.57;;;2.00;;
28834;SDS011;15969;51.536;11.884;2023-02-27T15:31:22;3.37;;;2.00;;
28834;SDS011;15969;51.536;11.884;2023-02-27T15:33:52;1.43;;;0.80;;
28834;SDS011;15969;51.536;11.884;2023-02-27T15:36:22;1.43;;;0.70;;
28834;SDS011;15969;51.536;11.884;2023-02-27T15:41:39;1.63;;;0.80;;
28834;SDS011;15969;51.536;11.884;2023-02-27T15:44:08;3.47;;;1.00;;
28834;SDS011;15969;51.536;11.884;2023-02-27T15:46:35;2.20;;;0.80;;
28834;SDS011;15969;51.536;11.884;2023-02-27T15:49:01;2.23;;;1.20;;
28834;SDS011;15969;51.536;11.884;2023-02-27T15:51:26;2.80;;;1.30;;
28834;SDS011;15969;51.536;11.884;2023-02-27T15:53:54;0.93;;;0.73;;
28834;SDS011;15969;51.536;11.884;2023-02-27T15:56:25;1.17;;;0.90;;
28834;SDS011;15969;51.536;11.884;2023-02-27T15:58:55;2.53;;;0.97;;
28834;SDS011;15969;51.536;11.884;2023-02-27T16:01:24;2.03;;;1.50;;
28834;SDS011;15969;51.536;11.884;2023-02-27T16:03:57;4.27;;;1.23;;
28834;SDS011;15969;51.536;11.884;2023-02-27T16:06:32;2.17;;;1.50;;
28834;SDS011;15969;51.536;11.884;2023-02-27T16:09:05;2.13;;;1.30;;
28834;SDS011;15969;51.536;11.884;2023-02-27T16:11:46;1.77;;;1.10;;
28834;SDS011;15969;51.536;11.884;2023-02-27T16:17:21;2.43;;;1.00;;
28834;SDS011;15969;51.536;11.884;2023-02-27T16:19:56;1.80;;;1.23;;
28834;SDS011;15969;51.536;11.884;2023-02-27T16:22:25;2.47;;;1.10;;
28834;SDS011;15969;51.536;11.884;2023-02-27T16:24:51;1.10;;;1.00;;
28834;SDS011;15969;51.536;11.884;2023-02-27T16:27:23;1.10;;;0.90;;
28834;SDS011;15969;51.536;11.884;2023-02-27T16:29:54;4.20;;;1.10;;
28834;SDS011;15969;51.536;11.884;2023-02-27T16:32:27;1.53;;;1.00;;
28834;SDS011;15969;51.536;11.884;2023-02-27T16:35:05;2.10;;;1.40;;
28834;SDS011;15969;51.536;11.884;2023-02-27T16:37:39;1.50;;;0.90;;
28834;SDS011;15969;51.536;11.884;2023-02-27T16:40:13;1.20;;;1.00;;